sensor_id;sensor_type;location;lat;lon;timestamp;temperature;humidity
18160;DHT22;9205;52.032;4.314;2022-11-04T00:02:01;11.90;99.90
18160;DHT22;9205;52.032;4.314;2022-11-04T00:04:31;11.70;99.90
18160;DHT22;9205;52.032;4.314;2022-11-04T00:06:58;11.70;99.90
18160;DHT22;9205;52.032;4.314;2022-11-04T00:09:27;11.80;99.90
18160;DHT22;9205;52.032;4.314;2022-11-04T00:11:56;11.80;99.90
18160;DHT22;9205;52.032;4.314;2022-11-04T00:14:41;12.00;99.90
18160;DHT22;9205;52.032;4.314;2022-11-04T00:17:10;11.80;99.90
18160;DHT22;9205;52.032;4.314;2022-11-04T00:19:52;11.70;99.90
18160;DHT22;9205;52.032;4.314;2022-11-04T00:22:41;11.80;99.90
18160;DHT22;9205;52.032;4.314;2022-11-04T00:25:26;11.70;99.90
18160;DHT22;9205;52.032;4.314;2022-11-04T00:28:12;12.00;99.90
18160;DHT22;9205;52.032;4.314;2022-11-04T00:31:01;11.80;99.90
18160;DHT22;9205;52.032;4.314;2022-11-04T00:33:43;12.00;99.90
18160;DHT22;9205;52.032;4.314;2022-11-04T00:36:12;11.90;99.90
18160;DHT22;9205;52.032;4.314;2022-11-04T00:38:39;12.10;99.90
18160;DHT22;9205;52.032;4.314;2022-11-04T00:41:06;12.00;99.90
18160;DHT22;9205;52.032;4.314;2022-11-04T00:43:50;11.90;99.90
18160;DHT22;9205;52.032;4.314;2022-11-04T00:46:18;11.70;99.90
18160;DHT22;9205;52.032;4.314;2022-11-04T00:48:45;11.80;99.90
18160;DHT22;9205;52.032;4.314;2022-11-04T00:51:14;11.90;99.90
18160;DHT22;9205;52.032;4.314;2022-11-04T00:53:41;11.80;99.90
18160;DHT22;9205;52.032;4.314;2022-11-04T00:56:08;11.60;99.90
18160;DHT22;9205;52.032;4.314;2022-11-04T00:58:35;12.00;99.90
18160;DHT22;9205;52.032;4.314;2022-11-04T01:01:07;11.70;99.90
18160;DHT22;9205;52.032;4.314;2022-11-04T01:03:35;11.90;99.90
18160;DHT22;9205;52.032;4.314;2022-11-04T01:06:02;11.90;99.90
18160;DHT22;9205;52.032;4.314;2022-11-04T01:08:31;11.80;99.90
18160;DHT22;9205;52.032;4.314;2022-11-04T01:11:00;12.00;99.90
18160;DHT22;9205;52.032;4.314;2022-11-04T01:13:28;11.70;99.90
18160;DHT22;9205;52.032;4.314;2022-11-04T01:15:56;11.70;99.90
18160;DHT22;9205;52.032;4.314;2022-11-04T01:18:24;11.80;99.90
18160;DHT22;9205;52.032;4.314;2022-11-04T01:20:52;11.90;99.90
18160;DHT22;9205;52.032;4.314;2022-11-04T01:23:19;11.40;99.90
18160;DHT22;9205;52.032;4.314;2022-11-04T01:25:48;11.70;99.90
18160;DHT22;9205;52.032;4.314;2022-11-04T01:28:15;11.50;99.90
18160;DHT22;9205;52.032;4.314;2022-11-04T01:30:42;11.70;99.90
18160;DHT22;9205;52.032;4.314;2022-11-04T01:33:09;11.60;99.90
18160;DHT22;9205;52.032;4.314;2022-11-04T01:35:36;11.60;99.90
18160;DHT22;9205;52.032;4.314;2022-11-04T01:38:03;11.40;99.90
18160;DHT22;9205;52.032;4.314;2022-11-04T01:40:35;11.40;99.90
18160;DHT22;9205;52.032;4.314;2022-11-04T01:43:08;11.30;99.90
18160;DHT22;9205;52.032;4.314;2022-11-04T01:45:42;11.40;99.90
18160;DHT22;9205;52.032;4.314;2022-11-04T01:48:17;11.20;99.90
18160;DHT22;9205;52.032;4.314;2022-11-04T01:50:48;11.50;99.90
18160;DHT22;9205;52.032;4.314;2022-11-04T01:53:22;11.30;99.90
18160;DHT22;9205;52.032;4.314;2022-11-04T01:55:55;11.20;99.90
18160;DHT22;9205;52.032;4.314;2022-11-04T01:58:30;11.20;99.90
18160;DHT22;9205;52.032;4.314;2022-11-04T02:01:00;11.20;99.90
18160;DHT22;9205;52.032;4.314;2022-11-04T02:03:32;11.30;99.90
18160;DHT22;9205;52.032;4.314;2022-11-04T02:06:02;11.10;99.90
18160;DHT22;9205;52.032;4.314;2022-11-04T02:08:30;11.20;99.90
18160;DHT22;9205;52.032;4.314;2022-11-04T02:10:59;11.20;99.90
18160;DHT22;9205;52.032;4.314;2022-11-04T02:13:30;11.20;99.90
18160;DHT22;9205;52.032;4.314;2022-11-04T02:16:06;11.00;99.90
18160;DHT22;9205;52.032;4.314;2022-11-04T02:18:52;11.20;99.90
18160;DHT22;9205;52.032;4.314;2022-11-04T02:21:51;11.10;99.90
18160;DHT22;9205;52.032;4.314;2022-11-04T02:25:03;11.10;99.90
18160;DHT22;9205;52.032;4.314;2022-11-04T02:27:49;11.30;99.90
18160;DHT22;9205;52.032;4.314;2022-11-04T02:30:41;11.30;99.90
18160;DHT22;9205;52.032;4.314;2022-11-04T02:33:18;11.20;99.90
18160;DHT22;9205;52.032;4.314;2022-11-04T02:35:56;11.30;99.90
18160;DHT22;9205;52.032;4.314;2022-11-04T02:38:33;11.30;99.90
18160;DHT22;9205;52.032;4.314;2022-11-04T02:41:12;11.30;99.90
18160;DHT22;9205;52.032;4.314;2022-11-04T02:43:50;11.20;99.90
18160;DHT22;9205;52.032;4.314;2022-11-04T02:46:25;11.20;99.90
18160;DHT22;9205;52.032;4.314;2022-11-04T02:49:06;11.40;99.90
18160;DHT22;9205;52.032;4.314;2022-11-04T02:51:40;11.10;99.90
18160;DHT22;9205;52.032;4.314;2022-11-04T02:54:16;11.20;99.90
18160;DHT22;9205;52.032;4.314;2022-11-04T02:56:50;11.10;99.90
18160;DHT22;9205;52.032;4.314;2022-11-04T02:59:27;11.20;99.90
18160;DHT22;9205;52.032;4.314;2022-11-04T03:02:02;11.30;99.90
18160;DHT22;9205;52.032;4.314;2022-11-04T03:04:37;11.20;99.90
18160;DHT22;9205;52.032;4.314;2022-11-04T03:07:09;11.30;99.90
18160;DHT22;9205;52.032;4.314;2022-11-04T03:09:43;11.20;99.90
18160;DHT22;9205;52.032;4.314;2022-11-04T03:12:18;10.90;99.90
18160;DHT22;9205;52.032;4.314;2022-11-04T03:14:51;11.10;99.90
18160;DHT22;9205;52.032;4.314;2022-11-04T03:17:25;11.20;99.90
18160;DHT22;9205;52.032;4.314;2022-11-04T03:20:00;10.90;99.90
18160;DHT22;9205;52.032;4.314;2022-11-04T03:22:34;11.10;99.90
18160;DHT22;9205;52.032;4.314;2022-11-04T03:25:03;11.10;99.90
18160;DHT22;9205;52.032;4.314;2022-11-04T03:27:36;10.90;99.90
18160;DHT22;9205;52.032;4.314;2022-11-04T03:30:12;11.20;99.90
18160;DHT22;9205;52.032;4.314;2022-11-04T03:32:46;11.00;99.90
18160;DHT22;9205;52.032;4.314;2022-11-04T03:35:21;10.90;99.90
18160;DHT22;9205;52.032;4.314;2022-11-04T03:37:49;11.10;99.90
18160;DHT22;9205;52.032;4.314;2022-11-04T03:40:17;11.10;99.90
18160;DHT22;9205;52.032;4.314;2022-11-04T03:42:49;11.10;99.90
18160;DHT22;9205;52.032;4.314;2022-11-04T03:45:22;10.90;99.90
18160;DHT22;9205;52.032;4.314;2022-11-04T03:47:51;10.80;99.90
18160;DHT22;9205;52.032;4.314;2022-11-04T03:50:23;10.90;99.90
18160;DHT22;9205;52.032;4.314;2022-11-04T03:52:53;11.00;99.90
18160;DHT22;9205;52.032;4.314;2022-11-04T03:55:21;10.80;99.90
18160;DHT22;9205;52.032;4.314;2022-11-04T03:57:54;10.80;99.90
18160;DHT22;9205;52.032;4.314;2022-11-04T04:00:32;11.00;99.90
18160;DHT22;9205;52.032;4.314;2022-11-04T04:03:08;10.80;99.90
18160;DHT22;9205;52.032;4.314;2022-11-04T04:05:44;10.90;99.90
18160;DHT22;9205;52.032;4.314;2022-11-04T04:08:27;11.00;99.90
18160;DHT22;9205;52.032;4.314;2022-11-04T04:11:05;11.00;99.90
18160;DHT22;9205;52.032;4.314;2022-11-04T04:13:43;11.00;99.90
18160;DHT22;9205;52.032;4.314;2022-11-04T04:16:18;10.80;99.90
18160;DHT22;9205;52.032;4.314;2022-11-04T04:18:52;10.90;99.90
18160;DHT22;9205;52.032;4.314;2022-11-04T04:21:26;10.80;99.90
18160;DHT22;9205;52.032;4.314;2022-11-04T04:23:58;11.00;99.90
18160;DHT22;9205;52.032;4.314;2022-11-04T04:26:51;11.00;99.90
18160;DHT22;9205;52.032;4.314;2022-11-04T04:29:38;10.80;99.90
18160;DHT22;9205;52.032;4.314;2022-11-04T04:32:07;10.90;99.90
18160;DHT22;9205;52.032;4.314;2022-11-04T04:34:36;10.80;99.90
18160;DHT22;9205;52.032;4.314;2022-11-04T04:37:06;10.90;99.90
18160;DHT22;9205;52.032;4.314;2022-11-04T04:39:40;10.90;99.90
18160;DHT22;9205;52.032;4.314;2022-11-04T04:42:30;10.70;99.90
18160;DHT22;9205;52.032;4.314;2022-11-04T04:45:20;10.70;99.90
18160;DHT22;9205;52.032;4.314;2022-11-04T04:47:52;10.70;99.90
18160;DHT22;9205;52.032;4.314;2022-11-04T04:50:21;10.60;99.90
18160;DHT22;9205;52.032;4.314;2022-11-04T04:52:52;10.70;99.90
18160;DHT22;9205;52.032;4.314;2022-11-04T04:55:22;10.60;99.90
18160;DHT22;9205;52.032;4.314;2022-11-04T04:57:49;10.50;99.90
18160;DHT22;9205;52.032;4.314;2022-11-04T05:00:18;10.60;99.90
18160;DHT22;9205;52.032;4.314;2022-11-04T05:02:47;10.50;99.90
18160;DHT22;9205;52.032;4.314;2022-11-04T05:05:15;10.70;99.90
18160;DHT22;9205;52.032;4.314;2022-11-04T05:07:44;10.70;99.90
18160;DHT22;9205;52.032;4.314;2022-11-04T05:10:13;10.70;99.90
18160;DHT22;9205;52.032;4.314;2022-11-04T05:12:41;10.70;99.90
18160;DHT22;9205;52.032;4.314;2022-11-04T05:15:27;10.50;99.90
18160;DHT22;9205;52.032;4.314;2022-11-04T05:17:57;10.60;99.90
18160;DHT22;9205;52.032;4.314;2022-11-04T05:20:26;10.50;99.90
18160;DHT22;9205;52.032;4.314;2022-11-04T05:22:56;10.70;99.90
18160;DHT22;9205;52.032;4.314;2022-11-04T05:25:23;10.50;99.90
18160;DHT22;9205;52.032;4.314;2022-11-04T05:27:50;10.60;99.90
18160;DHT22;9205;52.032;4.314;2022-11-04T05:30:17;10.70;99.90
18160;DHT22;9205;52.032;4.314;2022-11-04T05:32:45;10.70;99.90
18160;DHT22;9205;52.032;4.314;2022-11-04T05:35:12;10.70;99.90
18160;DHT22;9205;52.032;4.314;2022-11-04T05:37:39;10.70;99.90
18160;DHT22;9205;52.032;4.314;2022-11-04T05:40:09;10.80;99.90
18160;DHT22;9205;52.032;4.314;2022-11-04T05:42:37;10.90;99.90
18160;DHT22;9205;52.032;4.314;2022-11-04T05:45:05;10.70;99.90
18160;DHT22;9205;52.032;4.314;2022-11-04T05:47:33;10.70;99.90
18160;DHT22;9205;52.032;4.314;2022-11-04T05:50:00;10.80;99.90
18160;DHT22;9205;52.032;4.314;2022-11-04T05:52:27;11.00;99.90
18160;DHT22;9205;52.032;4.314;2022-11-04T05:54:55;10.80;99.90
18160;DHT22;9205;52.032;4.314;2022-11-04T05:57:23;10.90;99.90
18160;DHT22;9205;52.032;4.314;2022-11-04T05:59:50;10.90;99.90
18160;DHT22;9205;52.032;4.314;2022-11-04T06:02:17;11.00;99.90
18160;DHT22;9205;52.032;4.314;2022-11-04T06:04:45;11.00;99.90
18160;DHT22;9205;52.032;4.314;2022-11-04T06:07:12;10.80;99.90
18160;DHT22;9205;52.032;4.314;2022-11-04T06:09:39;10.90;99.90
18160;DHT22;9205;52.032;4.314;2022-11-04T06:12:07;11.00;99.90
18160;DHT22;9205;52.032;4.314;2022-11-04T06:14:37;10.80;99.90
18160;DHT22;9205;52.032;4.314;2022-11-04T06:17:04;10.70;99.90
18160;DHT22;9205;52.032;4.314;2022-11-04T06:19:32;11.00;99.90
18160;DHT22;9205;52.032;4.314;2022-11-04T06:21:59;11.00;99.90
18160;DHT22;9205;52.032;4.314;2022-11-04T06:24:28;10.90;99.90
18160;DHT22;9205;52.032;4.314;2022-11-04T06:26:55;10.90;99.90
18160;DHT22;9205;52.032;4.314;2022-11-04T06:29:22;10.90;99.90
18160;DHT22;9205;52.032;4.314;2022-11-04T06:31:51;10.70;99.90
18160;DHT22;9205;52.032;4.314;2022-11-04T06:34:18;10.80;99.90
18160;DHT22;9205;52.032;4.314;2022-11-04T06:36:46;10.80;99.90
18160;DHT22;9205;52.032;4.314;2022-11-04T06:39:14;10.70;99.90
18160;DHT22;9205;52.032;4.314;2022-11-04T06:41:41;10.80;99.90
18160;DHT22;9205;52.032;4.314;2022-11-04T06:44:08;10.70;99.90
18160;DHT22;9205;52.032;4.314;2022-11-04T06:46:40;10.80;99.90
18160;DHT22;9205;52.032;4.314;2022-11-04T06:49:12;10.80;99.90
18160;DHT22;9205;52.032;4.314;2022-11-04T06:51:40;11.00;99.90
18160;DHT22;9205;52.032;4.314;2022-11-04T06:54:08;10.80;99.90
18160;DHT22;9205;52.032;4.314;2022-11-04T06:56:35;10.90;99.90
18160;DHT22;9205;52.032;4.314;2022-11-04T06:59:03;11.00;99.90
18160;DHT22;9205;52.032;4.314;2022-11-04T07:01:34;10.90;99.90
18160;DHT22;9205;52.032;4.314;2022-11-04T07:04:03;10.90;99.90
18160;DHT22;9205;52.032;4.314;2022-11-04T07:06:32;11.00;99.90
18160;DHT22;9205;52.032;4.314;2022-11-04T07:09:01;10.80;99.90
18160;DHT22;9205;52.032;4.314;2022-11-04T07:11:31;11.00;99.90
18160;DHT22;9205;52.032;4.314;2022-11-04T07:13:59;10.90;99.90
18160;DHT22;9205;52.032;4.314;2022-11-04T07:16:26;11.10;99.90
18160;DHT22;9205;52.032;4.314;2022-11-04T07:18:53;11.10;99.90
18160;DHT22;9205;52.032;4.314;2022-11-04T07:21:23;11.00;99.90
18160;DHT22;9205;52.032;4.314;2022-11-04T07:23:51;10.90;99.90
18160;DHT22;9205;52.032;4.314;2022-11-04T07:26:19;10.90;99.90
18160;DHT22;9205;52.032;4.314;2022-11-04T07:28:46;11.00;99.90
18160;DHT22;9205;52.032;4.314;2022-11-04T07:31:14;11.10;99.90
18160;DHT22;9205;52.032;4.314;2022-11-04T07:33:42;11.00;99.90
18160;DHT22;9205;52.032;4.314;2022-11-04T07:36:14;11.10;99.90
18160;DHT22;9205;52.032;4.314;2022-11-04T07:38:44;11.20;99.90
18160;DHT22;9205;52.032;4.314;2022-11-04T07:41:14;11.10;99.90
18160;DHT22;9205;52.032;4.314;2022-11-04T07:43:46;11.00;99.90
18160;DHT22;9205;52.032;4.314;2022-11-04T07:46:15;11.20;99.90
18160;DHT22;9205;52.032;4.314;2022-11-04T07:48:42;11.00;99.90
18160;DHT22;9205;52.032;4.314;2022-11-04T07:51:12;11.10;99.90
18160;DHT22;9205;52.032;4.314;2022-11-04T07:53:42;11.20;99.90
18160;DHT22;9205;52.032;4.314;2022-11-04T07:56:13;11.10;99.90
18160;DHT22;9205;52.032;4.314;2022-11-04T07:58:40;11.30;99.90
18160;DHT22;9205;52.032;4.314;2022-11-04T08:01:10;11.20;99.90
18160;DHT22;9205;52.032;4.314;2022-11-04T08:03:39;11.20;99.90
18160;DHT22;9205;52.032;4.314;2022-11-04T08:06:08;11.40;99.90
18160;DHT22;9205;52.032;4.314;2022-11-04T08:08:36;11.50;99.90
18160;DHT22;9205;52.032;4.314;2022-11-04T08:11:06;11.60;99.90
18160;DHT22;9205;52.032;4.314;2022-11-04T08:13:37;11.40;99.90
18160;DHT22;9205;52.032;4.314;2022-11-04T08:16:08;11.40;99.90
18160;DHT22;9205;52.032;4.314;2022-11-04T08:18:39;11.50;99.90
18160;DHT22;9205;52.032;4.314;2022-11-04T08:21:10;11.50;99.90
18160;DHT22;9205;52.032;4.314;2022-11-04T08:23:37;11.50;99.90
18160;DHT22;9205;52.032;4.314;2022-11-04T08:26:07;11.50;99.90
18160;DHT22;9205;52.032;4.314;2022-11-04T08:28:36;11.60;99.90
18160;DHT22;9205;52.032;4.314;2022-11-04T08:31:06;11.60;99.90
18160;DHT22;9205;52.032;4.314;2022-11-04T08:33:35;11.60;99.90
18160;DHT22;9205;52.032;4.314;2022-11-04T08:36:05;11.60;99.90
18160;DHT22;9205;52.032;4.314;2022-11-04T08:38:36;11.70;99.90
18160;DHT22;9205;52.032;4.314;2022-11-04T08:41:06;11.60;99.90
18160;DHT22;9205;52.032;4.314;2022-11-04T08:43:36;11.70;99.90
18160;DHT22;9205;52.032;4.314;2022-11-04T08:46:08;11.80;99.90
18160;DHT22;9205;52.032;4.314;2022-11-04T08:48:37;11.70;99.90
18160;DHT22;9205;52.032;4.314;2022-11-04T08:51:10;11.70;99.90
18160;DHT22;9205;52.032;4.314;2022-11-04T08:53:39;11.80;99.90
18160;DHT22;9205;52.032;4.314;2022-11-04T08:56:12;11.90;99.90
18160;DHT22;9205;52.032;4.314;2022-11-04T08:58:43;11.90;99.90
18160;DHT22;9205;52.032;4.314;2022-11-04T09:01:11;11.90;99.90
18160;DHT22;9205;52.032;4.314;2022-11-04T09:03:40;12.00;99.90
18160;DHT22;9205;52.032;4.314;2022-11-04T09:06:10;11.70;99.90
18160;DHT22;9205;52.032;4.314;2022-11-04T09:08:40;11.80;99.90
18160;DHT22;9205;52.032;4.314;2022-11-04T09:11:10;12.00;99.90
18160;DHT22;9205;52.032;4.314;2022-11-04T09:13:39;12.10;99.90
18160;DHT22;9205;52.032;4.314;2022-11-04T09:16:10;11.80;99.90
18160;DHT22;9205;52.032;4.314;2022-11-04T09:18:39;11.80;99.90
18160;DHT22;9205;52.032;4.314;2022-11-04T09:21:08;12.00;99.90
18160;DHT22;9205;52.032;4.314;2022-11-04T09:23:36;12.00;99.90
18160;DHT22;9205;52.032;4.314;2022-11-04T09:26:07;12.00;99.90
18160;DHT22;9205;52.032;4.314;2022-11-04T09:28:35;11.80;99.90
18160;DHT22;9205;52.032;4.314;2022-11-04T09:31:08;12.00;99.90
18160;DHT22;9205;52.032;4.314;2022-11-04T09:33:37;11.80;99.90
18160;DHT22;9205;52.032;4.314;2022-11-04T09:36:07;11.90;99.90
18160;DHT22;9205;52.032;4.314;2022-11-04T09:38:35;11.90;99.90
18160;DHT22;9205;52.032;4.314;2022-11-04T09:41:08;11.80;99.90
18160;DHT22;9205;52.032;4.314;2022-11-04T09:43:51;11.90;99.90
18160;DHT22;9205;52.032;4.314;2022-11-04T09:46:30;11.90;99.90
18160;DHT22;9205;52.032;4.314;2022-11-04T09:49:00;11.80;99.90
18160;DHT22;9205;52.032;4.314;2022-11-04T09:51:31;11.80;99.90
18160;DHT22;9205;52.032;4.314;2022-11-04T09:54:01;12.00;99.90
18160;DHT22;9205;52.032;4.314;2022-11-04T09:56:36;11.90;99.90
18160;DHT22;9205;52.032;4.314;2022-11-04T09:59:09;11.90;99.90
18160;DHT22;9205;52.032;4.314;2022-11-04T10:01:47;11.90;99.90
18160;DHT22;9205;52.032;4.314;2022-11-04T10:04:29;12.10;99.90
18160;DHT22;9205;52.032;4.314;2022-11-04T10:07:13;12.00;99.90
18160;DHT22;9205;52.032;4.314;2022-11-04T10:09:57;11.90;99.90
18160;DHT22;9205;52.032;4.314;2022-11-04T10:12:43;12.10;99.90
18160;DHT22;9205;52.032;4.314;2022-11-04T10:15:33;12.00;99.90
18160;DHT22;9205;52.032;4.314;2022-11-04T10:18:32;12.10;99.90
18160;DHT22;9205;52.032;4.314;2022-11-04T10:21:20;12.10;99.90
18160;DHT22;9205;52.032;4.314;2022-11-04T10:24:06;12.30;99.90
18160;DHT22;9205;52.032;4.314;2022-11-04T10:26:41;12.30;99.90
18160;DHT22;9205;52.032;4.314;2022-11-04T10:29:14;12.20;99.90
18160;DHT22;9205;52.032;4.314;2022-11-04T10:31:44;12.30;99.90
18160;DHT22;9205;52.032;4.314;2022-11-04T10:34:22;12.50;99.90
18160;DHT22;9205;52.032;4.314;2022-11-04T10:36:58;12.30;99.90
18160;DHT22;9205;52.032;4.314;2022-11-04T10:39:28;12.40;99.90
18160;DHT22;9205;52.032;4.314;2022-11-04T10:41:56;12.60;99.90
18160;DHT22;9205;52.032;4.314;2022-11-04T10:44:25;12.50;99.90
18160;DHT22;9205;52.032;4.314;2022-11-04T10:47:03;12.40;99.90
18160;DHT22;9205;52.032;4.314;2022-11-04T10:50:00;12.40;99.90
18160;DHT22;9205;52.032;4.314;2022-11-04T10:52:40;12.50;99.90
18160;DHT22;9205;52.032;4.314;2022-11-04T10:55:26;12.50;99.90
18160;DHT22;9205;52.032;4.314;2022-11-04T10:57:59;12.40;99.90
18160;DHT22;9205;52.032;4.314;2022-11-04T11:00:39;12.60;99.90
18160;DHT22;9205;52.032;4.314;2022-11-04T11:03:37;12.70;99.90
18160;DHT22;9205;52.032;4.314;2022-11-04T11:06:24;12.70;99.90
18160;DHT22;9205;52.032;4.314;2022-11-04T11:08:56;12.70;99.90
18160;DHT22;9205;52.032;4.314;2022-11-04T11:11:37;12.90;99.90
18160;DHT22;9205;52.032;4.314;2022-11-04T11:14:15;13.00;99.90
18160;DHT22;9205;52.032;4.314;2022-11-04T11:16:44;13.10;99.90
18160;DHT22;9205;52.032;4.314;2022-11-04T11:19:18;13.10;99.90
18160;DHT22;9205;52.032;4.314;2022-11-04T11:21:50;13.20;99.90
18160;DHT22;9205;52.032;4.314;2022-11-04T11:24:19;13.20;99.90
18160;DHT22;9205;52.032;4.314;2022-11-04T11:26:49;12.90;99.90
18160;DHT22;9205;52.032;4.314;2022-11-04T11:29:22;13.00;99.90
18160;DHT22;9205;52.032;4.314;2022-11-04T11:31:52;12.80;99.90
18160;DHT22;9205;52.032;4.314;2022-11-04T11:34:24;12.50;99.90
18160;DHT22;9205;52.032;4.314;2022-11-04T11:36:56;12.60;99.90
18160;DHT22;9205;52.032;4.314;2022-11-04T11:39:25;12.70;99.90
18160;DHT22;9205;52.032;4.314;2022-11-04T11:41:57;13.00;99.90
18160;DHT22;9205;52.032;4.314;2022-11-04T11:44:28;13.10;99.90
18160;DHT22;9205;52.032;4.314;2022-11-04T11:47:01;13.20;99.90
18160;DHT22;9205;52.032;4.314;2022-11-04T11:49:32;12.90;99.90
18160;DHT22;9205;52.032;4.314;2022-11-04T11:52:30;12.80;99.90
18160;DHT22;9205;52.032;4.314;2022-11-04T11:55:03;12.80;99.90
18160;DHT22;9205;52.032;4.314;2022-11-04T11:57:45;12.70;99.90
18160;DHT22;9205;52.032;4.314;2022-11-04T12:00:19;12.80;99.90
18160;DHT22;9205;52.032;4.314;2022-11-04T12:02:57;12.70;99.90
18160;DHT22;9205;52.032;4.314;2022-11-04T12:05:34;12.50;99.90
18160;DHT22;9205;52.032;4.314;2022-11-04T12:08:20;12.60;99.90
18160;DHT22;9205;52.032;4.314;2022-11-04T12:11:04;12.40;99.90
18160;DHT22;9205;52.032;4.314;2022-11-04T12:13:40;12.70;99.90
18160;DHT22;9205;52.032;4.314;2022-11-04T12:16:24;12.60;99.90
18160;DHT22;9205;52.032;4.314;2022-11-04T12:22:03;12.70;99.90
18160;DHT22;9205;52.032;4.314;2022-11-04T12:24:55;12.40;99.90
18160;DHT22;9205;52.032;4.314;2022-11-04T12:27:35;12.50;99.90
18160;DHT22;9205;52.032;4.314;2022-11-04T12:30:08;12.50;99.90
18160;DHT22;9205;52.032;4.314;2022-11-04T12:32:59;12.40;99.90
18160;DHT22;9205;52.032;4.314;2022-11-04T12:35:49;12.40;99.90
18160;DHT22;9205;52.032;4.314;2022-11-04T12:41:54;12.40;99.90
18160;DHT22;9205;52.032;4.314;2022-11-04T12:44:32;12.40;99.90
18160;DHT22;9205;52.032;4.314;2022-11-04T12:47:18;12.30;99.90
18160;DHT22;9205;52.032;4.314;2022-11-04T12:50:17;12.30;99.90
18160;DHT22;9205;52.032;4.314;2022-11-04T12:53:29;12.10;99.90
18160;DHT22;9205;52.032;4.314;2022-11-04T12:56:11;12.00;99.90
18160;DHT22;9205;52.032;4.314;2022-11-04T12:59:03;11.90;99.90
18160;DHT22;9205;52.032;4.314;2022-11-04T13:01:45;11.80;99.90
18160;DHT22;9205;52.032;4.314;2022-11-04T13:04:19;11.70;99.90
18160;DHT22;9205;52.032;4.314;2022-11-04T13:06:50;11.90;99.90
18160;DHT22;9205;52.032;4.314;2022-11-04T13:09:29;11.70;99.90
18160;DHT22;9205;52.032;4.314;2022-11-04T13:12:08;11.90;99.90
18160;DHT22;9205;52.032;4.314;2022-11-04T13:14:45;11.80;99.90
18160;DHT22;9205;52.032;4.314;2022-11-04T13:17:19;11.50;99.90
18160;DHT22;9205;52.032;4.314;2022-11-04T13:19:53;11.70;99.90
18160;DHT22;9205;52.032;4.314;2022-11-04T13:22:26;11.50;99.90
18160;DHT22;9205;52.032;4.314;2022-11-04T13:25:00;11.60;99.90
18160;DHT22;9205;52.032;4.314;2022-11-04T13:27:34;11.50;99.90
18160;DHT22;9205;52.032;4.314;2022-11-04T13:30:11;11.60;99.90
18160;DHT22;9205;52.032;4.314;2022-11-04T13:32:48;11.60;99.90
18160;DHT22;9205;52.032;4.314;2022-11-04T13:35:27;11.80;99.90
18160;DHT22;9205;52.032;4.314;2022-11-04T13:38:03;11.80;99.90
18160;DHT22;9205;52.032;4.314;2022-11-04T13:40:40;11.90;99.90
18160;DHT22;9205;52.032;4.314;2022-11-04T13:43:23;11.90;99.90
18160;DHT22;9205;52.032;4.314;2022-11-04T13:46:20;11.70;99.90
18160;DHT22;9205;52.032;4.314;2022-11-04T13:49:01;11.80;99.90
18160;DHT22;9205;52.032;4.314;2022-11-04T13:51:37;11.80;99.90
18160;DHT22;9205;52.032;4.314;2022-11-04T13:54:22;11.90;99.90
18160;DHT22;9205;52.032;4.314;2022-11-04T13:57:06;11.90;99.90
18160;DHT22;9205;52.032;4.314;2022-11-04T13:59:37;11.90;99.90
18160;DHT22;9205;52.032;4.314;2022-11-04T14:02:31;12.00;99.90
18160;DHT22;9205;52.032;4.314;2022-11-04T14:08:31;11.90;99.90
18160;DHT22;9205;52.032;4.314;2022-11-04T14:11:06;12.20;99.90
18160;DHT22;9205;52.032;4.314;2022-11-04T14:14:15;12.00;99.90
18160;DHT22;9205;52.032;4.314;2022-11-04T14:16:45;12.00;99.90
18160;DHT22;9205;52.032;4.314;2022-11-04T14:22:46;12.20;99.90
18160;DHT22;9205;52.032;4.314;2022-11-04T14:25:24;12.10;99.90
18160;DHT22;9205;52.032;4.314;2022-11-04T14:27:58;12.20;99.90
18160;DHT22;9205;52.032;4.314;2022-11-04T14:30:33;12.00;99.90
18160;DHT22;9205;52.032;4.314;2022-11-04T14:33:27;12.20;99.90
18160;DHT22;9205;52.032;4.314;2022-11-04T14:39:05;11.90;99.90
18160;DHT22;9205;52.032;4.314;2022-11-04T14:42:03;11.90;99.90
18160;DHT22;9205;52.032;4.314;2022-11-04T14:44:34;12.10;99.90
18160;DHT22;9205;52.032;4.314;2022-11-04T14:47:15;12.20;99.90
18160;DHT22;9205;52.032;4.314;2022-11-04T14:49:46;12.30;99.90
18160;DHT22;9205;52.032;4.314;2022-11-04T14:52:20;12.10;99.90
18160;DHT22;9205;52.032;4.314;2022-11-04T14:54:55;12.00;99.90
18160;DHT22;9205;52.032;4.314;2022-11-04T14:57:24;12.10;99.90
18160;DHT22;9205;52.032;4.314;2022-11-04T14:59:51;12.10;99.90
18160;DHT22;9205;52.032;4.314;2022-11-04T15:02:21;12.30;99.90
18160;DHT22;9205;52.032;4.314;2022-11-04T15:04:55;12.00;99.90
18160;DHT22;9205;52.032;4.314;2022-11-04T15:07:37;12.30;99.90
18160;DHT22;9205;52.032;4.314;2022-11-04T15:10:19;12.20;99.90
18160;DHT22;9205;52.032;4.314;2022-11-04T15:12:49;12.30;99.90
18160;DHT22;9205;52.032;4.314;2022-11-04T15:15:28;12.20;99.90
18160;DHT22;9205;52.032;4.314;2022-11-04T15:18:05;12.10;99.90
18160;DHT22;9205;52.032;4.314;2022-11-04T15:20:38;12.40;99.90
18160;DHT22;9205;52.032;4.314;2022-11-04T15:23:15;12.40;99.90
18160;DHT22;9205;52.032;4.314;2022-11-04T15:25:47;12.30;99.90
18160;DHT22;9205;52.032;4.314;2022-11-04T15:28:26;12.20;99.90
18160;DHT22;9205;52.032;4.314;2022-11-04T15:31:02;12.50;99.90
18160;DHT22;9205;52.032;4.314;2022-11-04T15:33:37;12.50;99.90
18160;DHT22;9205;52.032;4.314;2022-11-04T15:36:10;12.20;99.90
18160;DHT22;9205;52.032;4.314;2022-11-04T15:38:48;12.40;99.90
18160;DHT22;9205;52.032;4.314;2022-11-04T15:41:19;12.20;99.90
18160;DHT22;9205;52.032;4.314;2022-11-04T15:44:14;12.10;99.90
18160;DHT22;9205;52.032;4.314;2022-11-04T15:46:50;12.30;99.90
18160;DHT22;9205;52.032;4.314;2022-11-04T15:49:25;12.30;99.90
18160;DHT22;9205;52.032;4.314;2022-11-04T15:51:55;12.20;99.90
18160;DHT22;9205;52.032;4.314;2022-11-04T15:54:28;12.00;99.90
18160;DHT22;9205;52.032;4.314;2022-11-04T15:57:03;11.80;99.90
18160;DHT22;9205;52.032;4.314;2022-11-04T15:59:38;12.10;99.90
18160;DHT22;9205;52.032;4.314;2022-11-04T16:02:21;12.00;99.90
18160;DHT22;9205;52.032;4.314;2022-11-04T16:05:06;11.70;99.90
18160;DHT22;9205;52.032;4.314;2022-11-04T16:07:48;11.80;99.90
18160;DHT22;9205;52.032;4.314;2022-11-04T16:10:25;11.70;99.90
18160;DHT22;9205;52.032;4.314;2022-11-04T16:12:56;11.80;99.90
18160;DHT22;9205;52.032;4.314;2022-11-04T16:15:33;11.60;99.90
18160;DHT22;9205;52.032;4.314;2022-11-04T16:18:02;11.60;99.90
18160;DHT22;9205;52.032;4.314;2022-11-04T16:20:32;11.50;99.90
18160;DHT22;9205;52.032;4.314;2022-11-04T16:23:01;11.60;99.90
18160;DHT22;9205;52.032;4.314;2022-11-04T16:25:33;11.40;99.90
18160;DHT22;9205;52.032;4.314;2022-11-04T16:28:01;11.50;99.90
18160;DHT22;9205;52.032;4.314;2022-11-04T16:30:29;11.30;99.90
18160;DHT22;9205;52.032;4.314;2022-11-04T16:33:07;11.30;99.90
18160;DHT22;9205;52.032;4.314;2022-11-04T16:35:36;11.30;99.90
18160;DHT22;9205;52.032;4.314;2022-11-04T16:38:07;11.30;99.90
18160;DHT22;9205;52.032;4.314;2022-11-04T16:40:36;11.10;99.90
18160;DHT22;9205;52.032;4.314;2022-11-04T16:43:04;11.10;99.90
18160;DHT22;9205;52.032;4.314;2022-11-04T16:45:33;11.40;99.90